Time;durP1;ratioP1;P1;durP2;ratioP2;P2;SDS_P1;SDS_P2;PMS_P1;PMS_P2;Temp;Humidity;BMP_temperature;BMP_pressure;BME280_temperature;BME280_humidity;BME280_pressure;Samples;Min_cycle;Max_cycle;Signal;HPM_P1;HPM_P2
2021/09/29 00:00:32;;;;;;;19.17;15.43;;;;;;;;;;2068040;28;20189;-59
2021/09/29 00:01:32;;;;;;;18.27;15.13;;;;;;;;;;2073864;28;20192;-64
2021/09/29 00:02:33;;;;;;;17.42;15.02;;;;;;;;;;2070979;28;20567;-57
2021/09/29 00:03:33;;;;;;;18.73;15.00;;;;;;;;;;2074590;28;20637;-59
2021/09/29 00:04:33;;;;;;;18.48;15.45;;;;;;;;;;2070280;28;20679;-64
2021/09/29 00:05:34;;;;;;;20.27;15.35;;;;;;;;;;2073646;28;20858;-60
2021/09/29 00:06:34;;;;;;;16.75;14.63;;;;;;;;;;2070835;28;20196;-63
2021/09/29 00:07:34;;;;;;;16.95;14.90;;;;;;;;;;2075054;28;20176;-56
2021/09/29 00:08:34;;;;;;;18.27;15.88;;;;;;;;;;2071890;28;20180;-58
2021/09/29 00:09:35;;;;;;;16.08;14.38;;;;;;;;;;2076384;28;20173;-58
2021/09/29 00:10:36;;;;;;;20.13;16.48;;;;;;;;;;2071367;28;20209;-63
2021/09/29 00:11:36;;;;;;;19.50;16.58;;;;;;;;;;2069437;28;20166;-58
2021/09/29 00:12:37;;;;;;;17.33;15.52;;;;;;;;;;2076634;28;20805;-61
2021/09/29 00:13:37;;;;;;;16.55;14.88;;;;;;;;;;2076285;28;20233;-60
2021/09/29 00:14:37;;;;;;;16.15;13.90;;;;;;;;;;2083275;28;20180;-60
2021/09/29 00:15:38;;;;;;;15.27;13.70;;;;;;;;;;2079902;28;20172;-63
2021/09/29 00:16:38;;;;;;;18.00;15.20;;;;;;;;;;2067753;28;20178;-63
2021/09/29 00:17:39;;;;;;;17.55;15.32;;;;;;;;;;2073843;28;20177;-59
2021/09/29 00:18:40;;;;;;;17.20;15.48;;;;;;;;;;2073783;28;20181;-62
2021/09/29 00:19:41;;;;;;;20.38;15.27;;;;;;;;;;2072236;28;20289;-63
2021/09/29 00:20:41;;;;;;;19.02;15.82;;;;;;;;;;2068610;28;20196;-62
2021/09/29 00:21:41;;;;;;;20.48;15.43;;;;;;;;;;2074555;28;20169;-62
2021/09/29 00:22:42;;;;;;;17.08;14.43;;;;;;;;;;2070417;28;20259;-61
2021/09/29 00:23:42;;;;;;;20.20;14.95;;;;;;;;;;2074140;28;20164;-61
2021/09/29 00:24:42;;;;;;;16.88;14.20;;;;;;;;;;2069722;28;20553;-62
2021/09/29 00:25:43;;;;;;;16.65;14.95;;;;;;;;;;2069960;28;20180;-61
2021/09/29 00:26:43;;;;;;;17.27;13.70;;;;;;;;;;2067200;28;20212;-58
2021/09/29 00:27:44;;;;;;;16.70;14.80;;;;;;;;;;2072856;28;20181;-63
2021/09/29 00:28:44;;;;;;;16.10;14.60;;;;;;;;;;2072793;28;20201;-57
2021/09/29 00:29:45;;;;;;;17.27;15.43;;;;;;;;;;2070949;28;20213;-57
2021/09/29 00:31:00;;;;;;;18.73;15.13;;;;;;;;;;2069563;28;20188;-60
2021/09/29 00:32:05;;;;;;;20.17;15.80;;;;;;;;;;2064771;28;20185;-59
2021/09/29 00:33:05;;;;;;;20.50;15.65;;;;;;;;;;2069185;28;20207;-63
2021/09/29 00:34:08;;;;;;;16.48;14.85;;;;;;;;;;2071185;28;20511;-59
2021/09/29 00:35:10;;;;;;;18.02;15.45;;;;;;;;;;2072773;28;20181;-61
2021/09/29 00:36:10;;;;;;;16.23;14.70;;;;;;;;;;2074290;28;20181;-60
2021/09/29 00:37:10;;;;;;;17.83;13.57;;;;;;;;;;2067312;28;20209;-59
2021/09/29 00:38:10;;;;;;;16.55;14.73;;;;;;;;;;2070074;28;20204;-63
2021/09/29 00:39:11;;;;;;;17.33;14.27;;;;;;;;;;2073320;28;20219;-61
2021/09/29 00:40:11;;;;;;;18.95;15.05;;;;;;;;;;2073281;28;20177;-62
2021/09/29 00:41:12;;;;;;;16.45;14.68;;;;;;;;;;2073339;28;20185;-61
2021/09/29 00:42:12;;;;;;;16.75;14.07;;;;;;;;;;2073560;28;20185;-62
2021/09/29 00:43:12;;;;;;;18.33;14.88;;;;;;;;;;2073445;28;20279;-61
2021/09/29 00:44:13;;;;;;;16.48;14.20;;;;;;;;;;2070369;28;20602;-60
2021/09/29 00:45:13;;;;;;;15.52;13.52;;;;;;;;;;2074020;28;20173;-62
2021/09/29 00:46:13;;;;;;;15.10;13.48;;;;;;;;;;2071858;28;20169;-64
2021/09/29 00:47:13;;;;;;;18.02;15.18;;;;;;;;;;2073336;28;20165;-63
2021/09/29 00:48:14;;;;;;;21.10;14.25;;;;;;;;;;2073876;28;20220;-63
2021/09/29 00:49:14;;;;;;;16.45;14.15;;;;;;;;;;2071678;28;20643;-61
2021/09/29 00:50:14;;;;;;;15.57;13.57;;;;;;;;;;2069747;28;20193;-60
2021/09/29 00:51:15;;;;;;;15.18;13.65;;;;;;;;;;2071610;28;20783;-63
2021/09/29 00:52:15;;;;;;;24.05;14.80;;;;;;;;;;2073303;28;20174;-58
2021/09/29 00:53:16;;;;;;;15.65;13.77;;;;;;;;;;2074445;28;20259;-56
2021/09/29 00:54:18;;;;;;;17.42;14.57;;;;;;;;;;2071538;28;20300;-59
2021/09/29 00:55:18;;;;;;;16.13;13.43;;;;;;;;;;2072192;28;20649;-63
2021/09/29 00:56:19;;;;;;;15.30;13.77;;;;;;;;;;2070758;28;20273;-62
2021/09/29 00:57:20;;;;;;;18.30;12.65;;;;;;;;;;2072143;28;20165;-64
2021/09/29 00:58:20;;;;;;;14.70;13.15;;;;;;;;;;2069475;28;20615;-64
2021/09/29 00:59:20;;;;;;;16.92;13.45;;;;;;;;;;2073590;28;20200;-64
2021/09/29 01:00:21;;;;;;;15.32;12.90;;;;;;;;;;2071808;28;20196;-58
2021/09/29 01:01:21;;;;;;;14.48;12.32;;;;;;;;;;2072187;28;20179;-61
2021/09/29 01:02:21;;;;;;;15.32;12.32;;;;;;;;;;2074154;28;20211;-58
2021/09/29 01:03:22;;;;;;;12.93;11.60;;;;;;;;;;2071804;28;20197;-62
2021/09/29 01:04:24;;;;;;;17.90;12.40;;;;;;;;;;2065821;28;20169;-64
2021/09/29 01:05:24;;;;;;;15.90;12.45;;;;;;;;;;2071620;28;20185;-63
2021/09/29 01:06:39;;;;;;;17.65;12.43;;;;;;;;;;2073846;28;20270;-65
2021/09/29 01:07:46;;;;;;;14.15;12.68;;;;;;;;;;2070027;28;20187;-58
2021/09/29 01:08:52;;;;;;;16.77;12.98;;;;;;;;;;2073072;28;20173;-63
2021/09/29 01:09:52;;;;;;;14.40;12.85;;;;;;;;;;2073509;28;20197;-60
2021/09/29 01:11:11;;;;;;;12.55;11.38;;;;;;;;;;2059692;28;20182;-59
2021/09/29 01:12:17;;;;;;;14.60;12.02;;;;;;;;;;2071390;28;20168;-61
2021/09/29 01:13:26;;;;;;;16.88;12.13;;;;;;;;;;2065836;28;20177;-62
2021/09/29 01:14:44;;;;;;;16.45;12.35;;;;;;;;;;2066453;28;20256;-59
2021/09/29 01:15:47;;;;;;;16.42;12.73;;;;;;;;;;2062580;28;20177;-61
2021/09/29 01:16:47;;;;;;;15.40;12.25;;;;;;;;;;2053649;28;20836;-61
2021/09/29 01:17:48;;;;;;;13.85;12.02;;;;;;;;;;2073492;28;20177;-63
2021/09/29 01:18:54;;;;;;;13.18;11.75;;;;;;;;;;2064965;28;20186;-57
2021/09/29 01:20:00;;;;;;;13.48;11.57;;;;;;;;;;2071516;28;20713;-61
2021/09/29 01:21:01;;;;;;;14.48;13.05;;;;;;;;;;2073560;28;20204;-56
2021/09/29 01:22:08;;;;;;;15.60;13.88;;;;;;;;;;2072702;28;20213;-62
2021/09/29 01:23:09;;;;;;;15.20;13.13;;;;;;;;;;2074303;28;20664;-60
2021/09/29 01:24:35;;;;;;;15.65;12.05;;;;;;;;;;2067630;28;20177;-58
2021/09/29 01:25:54;;;;;;;14.18;12.82;;;;;;;;;;2066823;28;20173;-61
2021/09/29 01:26:55;;;;;;;19.00;14.65;;;;;;;;;;2072903;28;20664;-60
2021/09/29 01:27:57;;;;;;;14.75;13.25;;;;;;;;;;2073822;28;20165;-64
2021/09/29 01:29:02;;;;;;;16.80;13.85;;;;;;;;;;2073418;28;20211;-59
2021/09/29 01:30:03;;;;;;;15.93;13.63;;;;;;;;;;2072022;28;20228;-56
2021/09/29 01:31:04;;;;;;;14.93;13.43;;;;;;;;;;2074842;28;20160;-61
2021/09/29 01:32:05;;;;;;;15.48;13.27;;;;;;;;;;2072388;28;20192;-61
2021/09/29 01:33:06;;;;;;;13.82;12.15;;;;;;;;;;2074750;28;20203;-63
2021/09/29 01:34:08;;;;;;;16.30;13.48;;;;;;;;;;2074026;28;20256;-62
2021/09/29 01:35:08;;;;;;;15.52;13.95;;;;;;;;;;2074415;28;20185;-59
2021/09/29 01:36:09;;;;;;;17.15;13.85;;;;;;;;;;2074548;28;20252;-63
2021/09/29 01:37:10;;;;;;;15.55;13.57;;;;;;;;;;2072095;28;20184;-62
2021/09/29 01:38:11;;;;;;;17.85;13.82;;;;;;;;;;2073563;28;20227;-61
2021/09/29 01:39:13;;;;;;;15.60;14.05;;;;;;;;;;2074247;28;20628;-64
2021/09/29 01:40:14;;;;;;;17.63;13.82;;;;;;;;;;2068610;28;20249;-63
2021/09/29 01:41:14;;;;;;;16.15;14.45;;;;;;;;;;2066247;28;20181;-60
2021/09/29 01:42:14;;;;;;;15.82;14.23;;;;;;;;;;2066508;28;20193;-61
2021/09/29 01:43:14;;;;;;;18.45;14.25;;;;;;;;;;2066044;28;20247;-57
2021/09/29 01:44:15;;;;;;;15.27;13.68;;;;;;;;;;2070884;28;20173;-64
2021/09/29 01:45:15;;;;;;;16.10;14.52;;;;;;;;;;2065471;28;20236;-63
2021/09/29 01:46:15;;;;;;;14.73;13.40;;;;;;;;;;2073657;28;20170;-62
2021/09/29 01:47:16;;;;;;;17.05;12.60;;;;;;;;;;2069790;28;20251;-60
2021/09/29 01:48:17;;;;;;;18.15;14.02;;;;;;;;;;2073621;28;20227;-60
2021/09/29 01:49:32;;;;;;;16.75;13.45;;;;;;;;;;2067627;28;20194;-61
2021/09/29 01:50:33;;;;;;;16.85;13.63;;;;;;;;;;2073683;28;20653;-59
2021/09/29 01:51:36;;;;;;;16.50;14.25;;;;;;;;;;2074574;28;20196;-56
2021/09/29 01:52:38;;;;;;;15.45;13.85;;;;;;;;;;2072921;28;20558;-62
2021/09/29 01:53:38;;;;;;;15.32;13.02;;;;;;;;;;2073078;28;20169;-60
2021/09/29 01:54:41;;;;;;;14.80;12.82;;;;;;;;;;2066673;28;20182;-62
2021/09/29 01:55:42;;;;;;;16.48;14.68;;;;;;;;;;2067872;28;20178;-55
2021/09/29 01:56:43;;;;;;;17.42;13.80;;;;;;;;;;2072775;28;20224;-56
2021/09/29 01:57:46;;;;;;;16.88;13.98;;;;;;;;;;2076929;28;20177;-62
2021/09/29 01:58:46;;;;;;;15.45;14.07;;;;;;;;;;2074875;28;20184;-65
2021/09/29 01:59:47;;;;;;;16.85;13.07;;;;;;;;;;2074308;28;20179;-64
2021/09/29 02:00:47;;;;;;;15.07;13.52;;;;;;;;;;2068050;28;20174;-63
2021/09/29 02:01:47;;;;;;;14.98;12.60;;;;;;;;;;2074187;28;20679;-61
2021/09/29 02:02:47;;;;;;;16.88;13.38;;;;;;;;;;2069804;28;20292;-58
2021/09/29 02:03:48;;;;;;;14.90;13.35;;;;;;;;;;2073032;28;20176;-59
2021/09/29 02:04:49;;;;;;;16.48;13.13;;;;;;;;;;2072508;28;20188;-59
2021/09/29 02:05:50;;;;;;;17.98;13.32;;;;;;;;;;2074001;28;20172;-59
2021/09/29 02:06:52;;;;;;;17.13;13.50;;;;;;;;;;2073512;28;20256;-60
2021/09/29 02:07:52;;;;;;;15.32;13.88;;;;;;;;;;2068354;28;20257;-60
2021/09/29 02:08:52;;;;;;;15.00;12.85;;;;;;;;;;2074336;28;20169;-62
2021/09/29 02:09:52;;;;;;;16.63;13.90;;;;;;;;;;2073728;28;20172;-60
2021/09/29 02:10:53;;;;;;;16.63;13.07;;;;;;;;;;2074011;28;20199;-63
2021/09/29 02:11:54;;;;;;;15.35;13.50;;;;;;;;;;2070383;28;20582;-59
2021/09/29 02:12:54;;;;;;;18.52;13.50;;;;;;;;;;2068805;28;20193;-62
2021/09/29 02:13:55;;;;;;;16.00;13.25;;;;;;;;;;2068323;28;20182;-62
2021/09/29 02:14:55;;;;;;;15.02;13.50;;;;;;;;;;2065828;28;20233;-59
2021/09/29 02:15:55;;;;;;;14.25;12.75;;;;;;;;;;2068707;28;20161;-58
2021/09/29 02:16:55;;;;;;;15.88;13.88;;;;;;;;;;2073459;28;20188;-60
2021/09/29 02:17:56;;;;;;;17.02;13.68;;;;;;;;;;2071446;28;20550;-56
2021/09/29 02:18:56;;;;;;;13.90;12.50;;;;;;;;;;2069312;28;20181;-61
2021/09/29 02:19:56;;;;;;;15.27;13.25;;;;;;;;;;2071089;28;20178;-61
2021/09/29 02:20:57;;;;;;;14.98;13.40;;;;;;;;;;2074472;28;20635;-55
2021/09/29 02:21:57;;;;;;;16.83;13.57;;;;;;;;;;2072399;28;20189;-64
2021/09/29 02:22:57;;;;;;;14.93;13.15;;;;;;;;;;2071400;28;20181;-63
2021/09/29 02:23:58;;;;;;;15.23;13.63;;;;;;;;;;2069757;28;20177;-64
2021/09/29 02:24:58;;;;;;;16.30;12.48;;;;;;;;;;2069856;28;20629;-64
2021/09/29 02:25:58;;;;;;;14.10;12.70;;;;;;;;;;2074532;28;20200;-61
2021/09/29 02:26:58;;;;;;;15.07;13.57;;;;;;;;;;2073841;28;20169;-61
2021/09/29 02:27:59;;;;;;;15.15;13.63;;;;;;;;;;2072243;28;20695;-62
2021/09/29 02:28:59;;;;;;;15.45;13.68;;;;;;;;;;2073722;28;20180;-61
2021/09/29 02:29:59;;;;;;;16.85;13.68;;;;;;;;;;2070160;28;20707;-61
2021/09/29 02:31:00;;;;;;;16.80;13.63;;;;;;;;;;2057147;28;20253;-62
2021/09/29 02:32:00;;;;;;;15.00;13.43;;;;;;;;;;2065340;28;20174;-57
2021/09/29 02:33:00;;;;;;;17.83;13.20;;;;;;;;;;2069958;28;20172;-56
2021/09/29 02:34:01;;;;;;;14.82;13.30;;;;;;;;;;2074391;28;20824;-59
2021/09/29 02:35:02;;;;;;;15.05;13.35;;;;;;;;;;2074310;28;20216;-55
2021/09/29 02:36:02;;;;;;;15.43;13.90;;;;;;;;;;2074449;28;20181;-60
2021/09/29 02:37:02;;;;;;;15.10;13.32;;;;;;;;;;2071464;28;20704;-58
2021/09/29 02:38:02;;;;;;;16.73;14.05;;;;;;;;;;2069269;28;20181;-58
2021/09/29 02:39:03;;;;;;;14.43;12.98;;;;;;;;;;2071509;28;20625;-60
2021/09/29 02:40:04;;;;;;;15.98;12.93;;;;;;;;;;2069981;28;20209;-62
2021/09/29 02:41:05;;;;;;;19.02;14.20;;;;;;;;;;2070003;28;20180;-59
2021/09/29 02:42:05;;;;;;;15.00;13.52;;;;;;;;;;2072839;28;20630;-60
2021/09/29 02:43:05;;;;;;;16.55;14.90;;;;;;;;;;2073031;28;20267;-59
2021/09/29 02:44:08;;;;;;;16.17;14.52;;;;;;;;;;2071283;28;20180;-60
2021/09/29 02:45:09;;;;;;;15.27;13.75;;;;;;;;;;2073308;28;20204;-63
2021/09/29 02:46:09;;;;;;;15.20;13.68;;;;;;;;;;2071250;28;20256;-61
2021/09/29 02:47:09;;;;;;;16.88;14.45;;;;;;;;;;2070330;28;20177;-65
2021/09/29 02:48:10;;;;;;;17.48;14.57;;;;;;;;;;2072256;28;20181;-61
2021/09/29 02:49:11;;;;;;;17.75;14.02;;;;;;;;;;2073721;28;20173;-60
2021/09/29 02:50:11;;;;;;;18.27;14.25;;;;;;;;;;2073567;28;20584;-60
2021/09/29 02:51:12;;;;;;;14.35;12.88;;;;;;;;;;2074840;28;20175;-57
2021/09/29 02:52:12;;;;;;;14.98;13.43;;;;;;;;;;2070971;28;20169;-58
2021/09/29 02:53:12;;;;;;;14.63;13.00;;;;;;;;;;2073061;28;20852;-61
2021/09/29 02:54:12;;;;;;;14.68;13.10;;;;;;;;;;2075536;28;20211;-60
2021/09/29 02:55:13;;;;;;;14.95;13.52;;;;;;;;;;2068749;28;20182;-55
2021/09/29 02:56:13;;;;;;;14.55;13.25;;;;;;;;;;2071912;28;20239;-58
2021/09/29 02:57:13;;;;;;;18.63;13.80;;;;;;;;;;2071413;28;20586;-55
2021/09/29 02:58:14;;;;;;;14.43;12.95;;;;;;;;;;2078899;28;20264;-60
2021/09/29 02:59:14;;;;;;;14.35;12.73;;;;;;;;;;2070134;28;20256;-62
2021/09/29 03:00:14;;;;;;;16.70;12.80;;;;;;;;;;2067904;28;20262;-64
2021/09/29 03:01:15;;;;;;;19.33;12.82;;;;;;;;;;2061094;28;20209;-60
2021/09/29 03:02:15;;;;;;;16.63;13.88;;;;;;;;;;2072832;28;20187;-58
2021/09/29 03:03:15;;;;;;;14.43;13.00;;;;;;;;;;2074156;28;20204;-61
2021/09/29 03:04:15;;;;;;;14.05;12.57;;;;;;;;;;2075595;28;20185;-57
2021/09/29 03:05:16;;;;;;;15.43;13.40;;;;;;;;;;2075955;28;20263;-64
2021/09/29 03:06:16;;;;;;;14.68;12.98;;;;;;;;;;2073425;28;20267;-62
2021/09/29 03:07:16;;;;;;;14.90;12.90;;;;;;;;;;2073653;28;20176;-59
2021/09/29 03:08:17;;;;;;;15.07;13.18;;;;;;;;;;2075342;28;20169;-58
2021/09/29 03:09:17;;;;;;;14.63;13.18;;;;;;;;;;2075691;28;20632;-57
2021/09/29 03:10:17;;;;;;;16.15;13.98;;;;;;;;;;2072179;28;20189;-58
2021/09/29 03:11:17;;;;;;;14.88;13.32;;;;;;;;;;2074922;28;20172;-57
2021/09/29 03:12:18;;;;;;;15.02;13.40;;;;;;;;;;2075093;28;20193;-62
2021/09/29 03:13:18;;;;;;;14.38;12.88;;;;;;;;;;2072807;28;20209;-60
2021/09/29 03:14:18;;;;;;;16.85;13.38;;;;;;;;;;2074101;28;20539;-60
2021/09/29 03:15:18;;;;;;;16.20;13.98;;;;;;;;;;2072439;28;20624;-64
2021/09/29 03:16:19;;;;;;;13.98;12.52;;;;;;;;;;2075640;28;20204;-63
2021/09/29 03:17:19;;;;;;;15.15;13.70;;;;;;;;;;2073875;28;20179;-60
2021/09/29 03:18:20;;;;;;;14.55;13.05;;;;;;;;;;2073858;28;20230;-62
2021/09/29 03:19:20;;;;;;;16.38;13.20;;;;;;;;;;2070921;28;20177;-61
2021/09/29 03:20:21;;;;;;;18.92;13.20;;;;;;;;;;2066948;28;20181;-61
2021/09/29 03:21:21;;;;;;;14.38;12.95;;;;;;;;;;2070063;28;20543;-63
2021/09/29 03:22:22;;;;;;;18.77;13.23;;;;;;;;;;2067533;28;20260;-58
2021/09/29 03:23:23;;;;;;;14.68;12.80;;;;;;;;;;2068293;28;20280;-60
2021/09/29 03:24:23;;;;;;;13.95;12.55;;;;;;;;;;2074110;28;20173;-63
2021/09/29 03:25:24;;;;;;;12.82;11.45;;;;;;;;;;2068979;28;20185;-62
2021/09/29 03:26:24;;;;;;;15.23;12.25;;;;;;;;;;2074991;28;20787;-60
2021/09/29 03:27:24;;;;;;;14.48;12.73;;;;;;;;;;2073976;28;20181;-62
2021/09/29 03:28:25;;;;;;;15.18;12.32;;;;;;;;;;2074591;28;20173;-61
2021/09/29 03:29:25;;;;;;;14.35;12.52;;;;;;;;;;2074916;28;20176;-59
2021/09/29 03:30:25;;;;;;;16.02;12.73;;;;;;;;;;2074831;28;20181;-64
2021/09/29 03:31:26;;;;;;;14.00;12.57;;;;;;;;;;2075894;28;20204;-63
2021/09/29 03:32:26;;;;;;;14.20;12.55;;;;;;;;;;2074547;28;20264;-62
2021/09/29 03:33:26;;;;;;;16.33;13.23;;;;;;;;;;2075083;28;20184;-60
2021/09/29 03:34:26;;;;;;;13.32;11.82;;;;;;;;;;2075369;28;20589;-62
2021/09/29 03:35:27;;;;;;;17.98;11.23;;;;;;;;;;2075065;28;20222;-60
2021/09/29 03:36:27;;;;;;;13.38;11.98;;;;;;;;;;2075753;28;20751;-61
2021/09/29 03:37:27;;;;;;;14.75;12.52;;;;;;;;;;2065009;28;20220;-62
2021/09/29 03:38:27;;;;;;;13.45;12.05;;;;;;;;;;2066928;28;20240;-57
2021/09/29 03:39:28;;;;;;;16.58;12.27;;;;;;;;;;2080177;28;20184;-60
2021/09/29 03:40:28;;;;;;;13.63;12.00;;;;;;;;;;2071581;28;20732;-65
2021/09/29 03:41:28;;;;;;;14.93;11.75;;;;;;;;;;2070401;28;20181;-63
2021/09/29 03:42:29;;;;;;;14.05;12.05;;;;;;;;;;2072405;28;20254;-60
2021/09/29 03:43:29;;;;;;;13.15;11.55;;;;;;;;;;2075415;28;20670;-64
2021/09/29 03:44:29;;;;;;;12.95;10.48;;;;;;;;;;2082910;28;20176;-58
2021/09/29 03:45:29;;;;;;;13.35;11.35;;;;;;;;;;2074373;28;20175;-61
2021/09/29 03:46:30;;;;;;;13.38;11.90;;;;;;;;;;2075653;28;20175;-62
2021/09/29 03:47:30;;;;;;;12.55;11.18;;;;;;;;;;2074175;28;20256;-63
2021/09/29 03:48:30;;;;;;;14.23;11.98;;;;;;;;;;2071456;28;20189;-67
2021/09/29 03:49:31;;;;;;;13.98;12.27;;;;;;;;;;2071650;28;20189;-64
2021/09/29 03:50:31;;;;;;;13.43;11.95;;;;;;;;;;2074899;28;20655;-62
2021/09/29 03:51:31;;;;;;;12.63;11.43;;;;;;;;;;2075780;28;20164;-62
2021/09/29 03:52:32;;;;;;;13.23;11.85;;;;;;;;;;2076339;28;20211;-60
2021/09/29 03:53:32;;;;;;;13.55;11.90;;;;;;;;;;2075370;28;20275;-62
2021/09/29 03:54:32;;;;;;;12.55;11.25;;;;;;;;;;2075335;28;20199;-62
2021/09/29 03:55:33;;;;;;;13.68;12.23;;;;;;;;;;2075920;28;20177;-62
2021/09/29 03:56:33;;;;;;;14.05;11.90;;;;;;;;;;2075978;28;20180;-63
2021/09/29 03:57:38;;;;;;;14.82;11.57;;;;;;;;;;2075658;28;20537;-64
2021/09/29 03:58:38;;;;;;;12.85;10.98;;;;;;;;;;2076403;28;20271;-60
2021/09/29 03:59:38;;;;;;;12.07;10.90;;;;;;;;;;2076201;28;20176;-60
2021/09/29 04:00:39;;;;;;;10.98;9.85;;;;;;;;;;2067962;28;20181;-61
2021/09/29 04:01:39;;;;;;;12.32;11.15;;;;;;;;;;2066259;28;20224;-58
2021/09/29 04:02:40;;;;;;;14.10;11.73;;;;;;;;;;2066889;28;20268;-62
2021/09/29 04:03:40;;;;;;;11.82;10.73;;;;;;;;;;2058030;28;20206;-61
2021/09/29 04:04:41;;;;;;;12.68;11.27;;;;;;;;;;2066893;28;20178;-61
2021/09/29 04:05:41;;;;;;;12.65;11.38;;;;;;;;;;2067176;28;20215;-63
2021/09/29 04:06:41;;;;;;;12.73;11.38;;;;;;;;;;2066685;28;20231;-61
2021/09/29 04:07:41;;;;;;;13.40;11.75;;;;;;;;;;2066785;28;20177;-62
2021/09/29 04:08:42;;;;;;;14.85;11.10;;;;;;;;;;2066938;28;20166;-65
2021/09/29 04:09:42;;;;;;;14.40;10.93;;;;;;;;;;2067080;28;20200;-62
2021/09/29 04:10:43;;;;;;;13.20;11.77;;;;;;;;;;2073248;28;20169;-62
2021/09/29 04:11:43;;;;;;;13.82;11.63;;;;;;;;;;2075295;28;20173;-62
2021/09/29 04:12:43;;;;;;;18.95;12.13;;;;;;;;;;2073144;28;20215;-59
2021/09/29 04:13:44;;;;;;;14.32;11.70;;;;;;;;;;2074179;28;20193;-56
2021/09/29 04:14:44;;;;;;;12.25;10.93;;;;;;;;;;2074454;28;20168;-64
2021/09/29 04:15:45;;;;;;;16.48;11.85;;;;;;;;;;2062629;28;20241;-60
2021/09/29 04:16:46;;;;;;;11.52;10.43;;;;;;;;;;2073896;28;20165;-60
2021/09/29 04:17:47;;;;;;;13.10;11.63;;;;;;;;;;2070914;28;20733;-57
2021/09/29 04:18:47;;;;;;;12.13;10.63;;;;;;;;;;2074298;28;20192;-59
2021/09/29 04:19:47;;;;;;;14.25;11.80;;;;;;;;;;2070806;28;20185;-62
2021/09/29 04:20:48;;;;;;;12.48;11.25;;;;;;;;;;2067216;28;20208;-58
2021/09/29 04:21:48;;;;;;;17.92;11.75;;;;;;;;;;2070948;28;20668;-59
2021/09/29 04:22:48;;;;;;;16.90;12.38;;;;;;;;;;2068303;28;20275;-60
2021/09/29 04:23:49;;;;;;;15.90;11.70;;;;;;;;;;2066364;28;20220;-63
2021/09/29 04:24:49;;;;;;;14.90;11.77;;;;;;;;;;2068578;28;20229;-62
2021/09/29 04:25:52;;;;;;;13.70;12.30;;;;;;;;;;2066636;28;20185;-60
2021/09/29 04:26:52;;;;;;;14.90;11.18;;;;;;;;;;2068338;28;20212;-55
2021/09/29 04:27:53;;;;;;;20.20;11.93;;;;;;;;;;2069641;28;20173;-64
2021/09/29 04:28:53;;;;;;;14.82;11.32;;;;;;;;;;2072959;28;20249;-57
2021/09/29 04:29:54;;;;;;;13.48;12.05;;;;;;;;;;2070493;28;20702;-59
2021/09/29 04:30:54;;;;;;;12.80;11.43;;;;;;;;;;2072026;28;20188;-56
2021/09/29 04:31:54;;;;;;;13.52;11.68;;;;;;;;;;2067267;28;20189;-59
2021/09/29 04:32:55;;;;;;;15.63;11.73;;;;;;;;;;2068439;28;20201;-62
2021/09/29 04:33:55;;;;;;;15.57;11.85;;;;;;;;;;2070283;28;20636;-64
2021/09/29 04:34:56;;;;;;;13.43;11.38;;;;;;;;;;2072375;28;20177;-61
2021/09/29 04:35:56;;;;;;;15.20;12.25;;;;;;;;;;2070430;28;20181;-60
2021/09/29 04:36:56;;;;;;;13.88;12.02;;;;;;;;;;2074208;28;20180;-58
2021/09/29 04:37:57;;;;;;;16.13;12.20;;;;;;;;;;2074651;28;20188;-59
2021/09/29 04:38:57;;;;;;;14.13;12.15;;;;;;;;;;2073590;28;20238;-63
2021/09/29 04:39:57;;;;;;;13.63;11.82;;;;;;;;;;2075004;28;20681;-59
2021/09/29 04:40:58;;;;;;;15.35;10.55;;;;;;;;;;2070538;28;20196;-63
2021/09/29 04:41:58;;;;;;;14.02;11.65;;;;;;;;;;2073834;28;20177;-64
2021/09/29 04:42:58;;;;;;;12.70;11.40;;;;;;;;;;2070131;28;20233;-59
2021/09/29 04:43:59;;;;;;;13.75;11.30;;;;;;;;;;2074296;28;20169;-65
2021/09/29 04:44:59;;;;;;;13.70;11.68;;;;;;;;;;2072367;28;20284;-63
2021/09/29 04:45:59;;;;;;;15.60;13.20;;;;;;;;;;2074878;28;20169;-61
2021/09/29 04:47:00;;;;;;;14.57;12.80;;;;;;;;;;2073344;28;20173;-65
2021/09/29 04:48:01;;;;;;;14.27;10.55;;;;;;;;;;2070017;28;20825;-61
2021/09/29 04:49:01;;;;;;;16.20;11.10;;;;;;;;;;2073802;28;20181;-57
2021/09/29 04:50:02;;;;;;;12.40;10.38;;;;;;;;;;2073379;28;20173;-56
2021/09/29 04:51:02;;;;;;;12.23;10.23;;;;;;;;;;2061050;28;20186;-65
2021/09/29 04:52:03;;;;;;;14.68;11.18;;;;;;;;;;2069665;28;20168;-63
2021/09/29 04:53:03;;;;;;;11.90;10.65;;;;;;;;;;2072627;28;20223;-59
2021/09/29 04:54:03;;;;;;;13.52;10.77;;;;;;;;;;2073803;28;20219;-61
2021/09/29 04:55:04;;;;;;;12.20;10.95;;;;;;;;;;2071234;28;20177;-60
2021/09/29 04:56:04;;;;;;;14.63;11.10;;;;;;;;;;2072212;28;20181;-62
2021/09/29 04:57:05;;;;;;;15.05;11.38;;;;;;;;;;2072826;28;20718;-62
2021/09/29 04:58:08;;;;;;;12.95;11.52;;;;;;;;;;2071634;28;20173;-64
2021/09/29 04:59:08;;;;;;;12.25;11.05;;;;;;;;;;2069098;28;20181;-63
2021/09/29 05:00:09;;;;;;;14.43;11.25;;;;;;;;;;2071096;28;20200;-56
2021/09/29 05:01:10;;;;;;;12.38;11.15;;;;;;;;;;2070139;28;20173;-59
2021/09/29 05:02:10;;;;;;;16.75;10.35;;;;;;;;;;2066967;28;20180;-59
2021/09/29 05:03:12;;;;;;;14.77;10.63;;;;;;;;;;2072277;28;20627;-47
2021/09/29 05:04:15;;;;;;;13.18;10.60;;;;;;;;;;2067416;28;20217;-54
2021/09/29 05:05:16;;;;;;;12.23;10.45;;;;;;;;;;2073925;28;20189;-51
2021/09/29 05:06:16;;;;;;;11.85;10.65;;;;;;;;;;2072433;28;20180;-55
2021/09/29 05:07:17;;;;;;;12.40;10.80;;;;;;;;;;2071639;28;20230;-54
2021/09/29 05:08:19;;;;;;;12.57;10.90;;;;;;;;;;2071631;28;20173;-55
2021/09/29 05:09:19;;;;;;;13.30;10.43;;;;;;;;;;2072397;28;20201;-55
2021/09/29 05:10:22;;;;;;;14.30;10.52;;;;;;;;;;2071754;28;20195;-57
2021/09/29 05:11:24;;;;;;;13.68;11.63;;;;;;;;;;2064311;28;20240;-55
2021/09/29 05:12:26;;;;;;;14.23;10.90;;;;;;;;;;2070196;28;20200;-54
2021/09/29 05:13:29;;;;;;;14.20;11.70;;;;;;;;;;2071819;28;20188;-57
2021/09/29 05:14:29;;;;;;;14.68;10.05;;;;;;;;;;2081225;28;20200;-54
2021/09/29 05:15:29;;;;;;;14.43;11.68;;;;;;;;;;2057153;28;20233;-57
2021/09/29 05:16:30;;;;;;;13.30;10.73;;;;;;;;;;2069731;28;20177;-56
2021/09/29 05:17:30;;;;;;;13.25;11.00;;;;;;;;;;2081831;28;20636;-56
2021/09/29 05:18:30;;;;;;;12.52;11.23;;;;;;;;;;2063927;28;20211;-57
2021/09/29 05:19:30;;;;;;;14.77;11.77;;;;;;;;;;2065645;28;20744;-53
2021/09/29 05:20:31;;;;;;;12.65;11.18;;;;;;;;;;2075182;28;20200;-56
2021/09/29 05:21:32;;;;;;;12.13;11.05;;;;;;;;;;2073151;28;20265;-50
2021/09/29 05:22:32;;;;;;;13.45;11.18;;;;;;;;;;2080766;28;20168;-51
2021/09/29 05:23:32;;;;;;;14.98;11.90;;;;;;;;;;2072937;28;20266;-50
2021/09/29 05:24:33;;;;;;;11.95;10.57;;;;;;;;;;2080290;28;20252;-57
2021/09/29 05:25:34;;;;;;;13.38;11.90;;;;;;;;;;2068700;28;20637;-54
2021/09/29 05:26:34;;;;;;;11.73;10.30;;;;;;;;;;2074977;28;20674;-55
2021/09/29 05:27:35;;;;;;;13.25;11.25;;;;;;;;;;2075881;28;20170;-56
2021/09/29 05:28:36;;;;;;;12.48;11.18;;;;;;;;;;2066788;28;20209;-55
2021/09/29 05:29:38;;;;;;;12.10;10.45;;;;;;;;;;2077765;28;20239;-53
2021/09/29 05:30:38;;;;;;;13.77;11.05;;;;;;;;;;2067615;28;20733;-51
2021/09/29 05:31:38;;;;;;;11.75;10.60;;;;;;;;;;2073976;28;20166;-51
2021/09/29 05:32:39;;;;;;;12.40;11.07;;;;;;;;;;2070727;28;20192;-52
2021/09/29 05:33:39;;;;;;;15.15;12.27;;;;;;;;;;2077805;28;20197;-54
2021/09/29 05:34:39;;;;;;;13.07;11.20;;;;;;;;;;2080502;28;20180;-56
2021/09/29 05:35:39;;;;;;;14.45;11.02;;;;;;;;;;2073070;28;20182;-53
2021/09/29 05:36:41;;;;;;;14.10;11.15;;;;;;;;;;2079725;28;20226;-53
2021/09/29 05:37:41;;;;;;;13.45;12.05;;;;;;;;;;2070922;28;20177;-52
2021/09/29 05:38:41;;;;;;;13.68;11.02;;;;;;;;;;2074057;28;20613;-53
2021/09/29 05:39:41;;;;;;;15.23;11.45;;;;;;;;;;2072825;28;20182;-57
2021/09/29 05:40:42;;;;;;;13.38;11.77;;;;;;;;;;2079409;28;20284;-54
2021/09/29 05:41:42;;;;;;;12.18;10.88;;;;;;;;;;2072720;28;20701;-54
2021/09/29 05:42:42;;;;;;;14.88;12.30;;;;;;;;;;2069212;28;20216;-52
2021/09/29 05:43:43;;;;;;;14.60;13.05;;;;;;;;;;2071039;28;20280;-53
2021/09/29 05:44:43;;;;;;;19.48;15.60;;;;;;;;;;2078950;28;20192;-54
2021/09/29 05:45:44;;;;;;;17.50;15.63;;;;;;;;;;2066576;28;20193;-52
2021/09/29 05:46:44;;;;;;;12.80;11.32;;;;;;;;;;2073737;28;20176;-55
2021/09/29 05:47:44;;;;;;;15.20;12.15;;;;;;;;;;2074259;28;20185;-67
2021/09/29 05:48:44;;;;;;;12.77;10.15;;;;;;;;;;2070268;28;20197;-65
2021/09/29 05:49:44;;;;;;;11.77;10.10;;;;;;;;;;2069547;28;20177;-52
2021/09/29 05:50:45;;;;;;;12.77;11.40;;;;;;;;;;2069674;28;20246;-50
2021/09/29 05:51:47;;;;;;;11.70;9.95;;;;;;;;;;2071954;28;20181;-53
2021/09/29 05:52:47;;;;;;;11.93;10.63;;;;;;;;;;2072602;28;20185;-51
2021/09/29 05:53:47;;;;;;;11.18;10.00;;;;;;;;;;2070889;28;22030;-52
2021/09/29 05:54:47;;;;;;;11.35;10.25;;;;;;;;;;2066650;28;20200;-55